Time,TemperatureF,DewpointF,PressureIn,WindDirection,WindDirectionDegrees,WindSpeedMPH,WindSpeedGustMPH,Humidity,HourlyPrecipIn,Conditions,Clouds,dailyrainin,SoftwareType,DateUTC
2013-03-11 00:02:00,45.7,43.0,29.44,NE,47,0.0,3.0,90,0.00,,,0.01,meteohub,2013-03-10 23:02:00,
2013-03-11 00:32:00,45.7,43.0,29.44,North,5,0.0,3.0,90,0.00,,,0.01,meteohub,2013-03-10 23:32:00,
2013-03-11 01:02:00,45.9,42.4,29.44,ESE,121,0.0,3.0,88,0.00,,,0.01,meteohub,2013-03-11 00:02:00,
2013-03-11 02:02:00,45.1,42.4,29.44,ENE,63,0.0,3.0,90,0.00,,,0.00,meteohub,2013-03-11 01:02:00,
2013-03-11 02:32:00,45.1,42.6,29.45,ENE,64,0.0,2.0,91,0.01,,,0.01,meteohub,2013-03-11 01:32:00,
2013-03-11 03:02:00,40.5,37.4,29.47,NNE,17,8.0,18.0,89,0.03,,,0.03,meteohub,2013-03-11 02:02:00,
2013-03-11 03:32:00,38.5,36.1,29.48,NNE,13,8.0,11.0,91,0.06,,,0.06,meteohub,2013-03-11 02:32:00,
2013-03-11 04:02:00,36.7,34.5,29.50,NE,38,2.0,11.0,92,0.06,,,0.09,meteohub,2013-03-11 03:02:00,
2013-03-11 04:32:00,35.6,33.8,29.51,NNE,21,1.0,5.0,93,0.04,,,0.10,meteohub,2013-03-11 03:32:00,
2013-03-11 05:02:00,34.3,32.7,29.52,NNE,21,0.0,2.0,94,0.02,,,0.11,meteohub,2013-03-11 04:02:00,
2013-03-11 05:32:00,34.0,32.7,29.53,NNE,21,0.0,1.0,95,0.00,,,0.11,meteohub,2013-03-11 04:32:00,
2013-03-11 06:02:00,33.6,30.9,29.54,NNE,32,4.0,7.0,90,0.00,,,0.11,meteohub,2013-03-11 05:02:00,
2013-03-11 06:32:00,32.2,29.7,29.55,ENE,61,0.0,8.0,90,0.00,,,0.11,meteohub,2013-03-11 05:32:00,
2013-03-11 07:02:00,31.3,28.8,29.56,WNW,302,2.0,8.0,90,0.00,,,0.11,meteohub,2013-03-11 06:02:00,
2013-03-11 07:32:00,31.5,28.9,29.57,NNE,32,0.0,5.0,90,0.00,,,0.11,meteohub,2013-03-11 06:32:00,
2013-03-11 08:02:00,30.9,27.5,29.59,ENE,57,2.0,5.0,87,0.00,,,0.11,meteohub,2013-03-11 07:02:00,
2013-03-11 08:32:00,30.4,26.8,29.60,NNE,24,3.0,9.0,86,0.00,,,0.11,meteohub,2013-03-11 07:32:00,
2013-03-11 09:02:00,30.4,26.8,29.60,NNW,347,2.0,10.0,86,0.00,,,0.11,meteohub,2013-03-11 08:02:00,
2013-03-11 09:32:00,30.6,27.0,29.61,North,355,4.0,10.0,86,0.00,,,0.11,meteohub,2013-03-11 08:32:00,
2013-03-11 10:02:00,30.7,27.3,29.61,North,355,3.0,7.0,87,0.00,,,0.11,meteohub,2013-03-11 09:02:00,
2013-03-11 10:32:00,31.3,27.3,29.62,NW,306,2.0,8.0,85,0.00,,,0.11,meteohub,2013-03-11 09:32:00,
2013-03-11 11:02:00,31.5,27.5,29.62,NW,313,1.0,7.0,85,0.01,,,0.12,meteohub,2013-03-11 10:02:00,
2013-03-11 11:32:00,31.8,27.9,29.63,NE,34,4.0,8.0,85,0.02,,,0.13,meteohub,2013-03-11 10:32:00,
2013-03-11 12:02:00,32.4,28.0,29.63,NW,306,1.0,5.0,84,0.02,,,0.13,meteohub,2013-03-11 11:02:00,
2013-03-11 12:32:00,32.2,27.3,29.64,NW,323,3.0,6.0,82,0.02,,,0.14,meteohub,2013-03-11 11:32:00,
2013-03-11 13:02:00,32.2,27.3,29.64,NNW,329,0.0,6.0,82,0.01,,,0.14,meteohub,2013-03-11 12:02:00,
2013-03-11 13:32:00,32.2,27.0,29.64,ENE,68,0.0,7.0,81,0.01,,,0.15,meteohub,2013-03-11 12:32:00,
2013-03-11 14:02:00,32.2,27.3,29.65,East,95,1.0,6.0,82,0.01,,,0.15,meteohub,2013-03-11 13:02:00,
2013-03-11 14:32:00,32.2,27.0,29.65,ENE,78,2.0,8.0,81,0.00,,,0.15,meteohub,2013-03-11 13:32:00,
2013-03-11 15:02:00,32.4,27.1,29.65,NW,311,6.0,8.0,81,0.00,,,0.15,meteohub,2013-03-11 14:02:00,
2013-03-11 15:32:00,32.2,27.0,29.65,NNW,335,5.0,8.0,81,0.00,,,0.15,meteohub,2013-03-11 14:32:00,
2013-03-11 16:02:00,32.0,27.1,29.65,North,0,6.0,9.0,82,0.00,,,0.15,meteohub,2013-03-11 15:02:00,
2013-03-11 16:32:00,31.6,27.1,29.66,NNE,23,6.0,9.0,83,0.00,,,0.15,meteohub,2013-03-11 15:32:00,
2013-03-11 17:02:00,31.3,26.8,29.65,North,11,2.0,10.0,83,0.00,,,0.15,meteohub,2013-03-11 16:02:00,
2013-03-11 17:32:00,30.7,26.2,29.66,North,0,7.0,12.0,83,0.00,,,0.15,meteohub,2013-03-11 16:32:00,
2013-03-11 18:02:00,30.6,26.2,29.66,NE,41,2.0,10.0,84,0.00,,,0.15,meteohub,2013-03-11 17:02:00,
2013-03-11 18:32:00,30.2,25.9,29.68,ESE,117,1.0,7.0,84,0.00,,,0.15,meteohub,2013-03-11 17:32:00,
2013-03-11 19:02:00,30.0,25.7,29.68,NNE,28,2.0,5.0,84,0.00,,,0.15,meteohub,2013-03-11 18:02:00,
2013-03-11 19:32:00,29.7,25.2,29.68,ENE,67,0.0,7.0,83,0.00,,,0.15,meteohub,2013-03-11 18:32:00,
2013-03-11 20:02:00,29.5,25.0,29.69,NW,321,1.0,6.0,83,0.00,,,0.15,meteohub,2013-03-11 19:02:00,
2013-03-11 20:32:00,29.5,25.0,29.69,North,10,4.0,4.0,83,0.00,,,0.15,meteohub,2013-03-11 19:32:00,
2013-03-11 21:02:00,29.3,25.2,29.69,NNE,29,0.0,3.0,84,0.00,,,0.15,meteohub,2013-03-11 20:02:00,
2013-03-11 21:32:00,29.1,25.0,29.69,NE,37,0.0,5.0,84,0.00,,,0.15,meteohub,2013-03-11 20:32:00,
2013-03-11 22:02:00,28.9,24.8,29.70,NNE,18,2.0,4.0,84,0.00,,,0.15,meteohub,2013-03-11 21:02:00,
2013-03-11 22:32:00,28.8,24.3,29.70,ENE,58,0.0,6.0,83,0.00,,,0.15,meteohub,2013-03-11 21:32:00,
2013-03-11 23:02:00,28.6,24.4,29.70,North,5,1.0,4.0,84,0.00,,,0.15,meteohub,2013-03-11 22:02:00,
2013-03-11 23:32:00,28.6,24.6,29.69,NE,38,5.0,5.0,85,0.00,,,0.15,meteohub,2013-03-11 22:32:00,